createdAt,value
2019-05-22T00:00:18.660Z,44.31
2019-05-22T00:01:18.771Z,42.22
2019-05-22T00:02:18.910Z,43.99
2019-05-22T00:03:19.106Z,47.53
2019-05-22T00:04:19.249Z,45.44
2019-05-22T00:05:19.423Z,71.54
2019-05-22T00:06:19.607Z,77.50
2019-05-22T00:07:19.852Z,65.90
2019-05-22T00:08:20.044Z,44.63
2019-05-22T00:09:20.244Z,57.36
2019-05-22T00:10:20.444Z,40.12
2019-05-22T00:11:20.651Z,43.02
2019-05-22T00:12:20.875Z,41.41
2019-05-22T00:13:21.110Z,42.86
2019-05-22T00:14:21.356Z,41.41
2019-05-22T00:15:21.555Z,46.57
2019-05-22T00:16:21.736Z,43.51
2019-05-22T00:17:21.928Z,45.12
2019-05-22T00:18:22.141Z,46.41
2019-05-22T00:19:22.362Z,42.22
2019-05-22T00:20:22.513Z,48.02
2019-05-22T00:21:22.678Z,43.83
2019-05-22T00:22:22.862Z,41.73
2019-05-22T00:23:23.041Z,45.44
2019-05-22T00:24:23.240Z,46.08
2019-05-22T00:25:23.405Z,61.23
2019-05-22T00:26:23.596Z,44.15
2019-05-22T00:27:23.773Z,42.70
2019-05-22T00:28:23.932Z,52.37
2019-05-22T00:29:24.149Z,65.74
2019-05-22T00:30:24.330Z,52.53
2019-05-22T00:31:24.507Z,50.60
2019-05-22T00:32:24.667Z,44.79
2019-05-22T00:33:24.830Z,39.64
2019-05-22T00:34:25.030Z,50.11
2019-05-22T00:35:25.221Z,75.89
2019-05-22T00:36:25.383Z,43.34
2019-05-22T00:37:25.576Z,51.24
2019-05-22T00:38:25.748Z,45.28
2019-05-22T00:39:25.914Z,44.47
2019-05-22T00:40:26.113Z,56.72
2019-05-22T00:41:26.293Z,49.95
2019-05-22T00:42:26.465Z,58.97
2019-05-22T00:43:26.638Z,40.77
2019-05-22T00:44:26.783Z,40.93
2019-05-22T00:45:27.971Z,54.14
2019-05-22T00:46:27.116Z,53.82
2019-05-22T00:47:27.303Z,51.08
2019-05-22T00:48:27.494Z,71.70
2019-05-22T00:49:27.660Z,50.43
2019-05-22T00:50:27.825Z,50.60
2019-05-22T00:51:27.998Z,56.40
2019-05-22T00:52:28.155Z,48.02
2019-05-22T00:53:29.327Z,40.44
2019-05-22T00:54:28.457Z,50.92
2019-05-22T00:55:28.607Z,39.64
2019-05-22T00:56:28.781Z,40.28
2019-05-22T00:57:28.968Z,39.64
2019-05-22T00:58:29.133Z,64.45
2019-05-22T00:59:29.307Z,48.66
2019-05-22T01:00:29.466Z,45.60
2019-05-22T01:01:29.641Z,48.18
2019-05-22T01:02:29.784Z,40.77
2019-05-22T01:03:29.936Z,48.02
2019-05-22T01:04:30.096Z,43.83
2019-05-22T01:05:30.257Z,44.47
2019-05-22T01:06:30.444Z,42.06
2019-05-22T01:07:30.642Z,43.83
2019-05-22T01:08:30.800Z,43.99
2019-05-22T01:09:31.023Z,42.06
2019-05-22T01:10:31.097Z,63.49
2019-05-22T01:11:31.278Z,46.25
2019-05-22T01:12:31.490Z,53.33
2019-05-22T01:13:31.576Z,66.87
2019-05-22T01:14:42.620Z,62.84
2019-05-22T01:15:33.895Z,44.15
2019-05-22T01:16:32.070Z,62.36
2019-05-22T01:17:32.247Z,44.31
2019-05-22T01:18:32.426Z,43.02
2019-05-22T01:19:32.589Z,43.83
2019-05-22T01:20:32.745Z,40.28
2019-05-22T01:21:32.949Z,73.15
2019-05-22T01:22:33.122Z,46.25
2019-05-22T01:23:33.307Z,46.57
2019-05-22T01:24:33.493Z,58.01
2019-05-22T01:25:33.648Z,40.44
2019-05-22T01:26:33.844Z,73.15
2019-05-22T01:27:34.018Z,43.83
2019-05-22T01:28:34.184Z,41.89
2019-05-22T01:29:34.372Z,45.92
2019-05-22T01:30:34.519Z,45.44
2019-05-22T01:31:34.682Z,69.77
2019-05-22T01:32:34.851Z,46.08
2019-05-22T01:33:35.045Z,44.96
2019-05-22T01:34:35.233Z,49.79
2019-05-22T01:35:35.395Z,52.21
2019-05-22T01:36:35.595Z,48.02
2019-05-22T01:37:35.792Z,41.25
2019-05-22T01:38:35.978Z,45.76
2019-05-22T01:39:36.130Z,50.11
2019-05-22T01:40:36.295Z,61.07
2019-05-22T01:41:36.472Z,44.63
2019-05-22T01:42:36.715Z,42.54
2019-05-22T01:43:36.836Z,45.28
2019-05-22T01:44:37.039Z,45.76
2019-05-22T01:45:37.192Z,45.92
2019-05-22T01:46:37.372Z,51.56
2019-05-22T01:47:37.555Z,56.72
2019-05-22T01:48:37.728Z,52.21
2019-05-22T01:49:37.882Z,46.73
2019-05-22T01:50:38.019Z,55.27
2019-05-22T01:51:38.172Z,48.34
2019-05-22T01:52:38.363Z,60.42
2019-05-22T01:53:38.497Z,65.42
2019-05-22T01:54:38.803Z,50.76
2019-05-22T01:55:38.957Z,57.69
2019-05-22T01:56:39.100Z,54.62
2019-05-22T01:57:39.255Z,66.55
2019-05-22T01:58:39.410Z,49.95
2019-05-22T01:59:39.599Z,41.09
2019-05-22T02:00:39.739Z,51.72
2019-05-22T02:01:39.900Z,64.61
2019-05-22T02:02:40.027Z,49.79
2019-05-22T02:03:40.188Z,63.33
2019-05-22T02:04:40.366Z,46.57
2019-05-22T02:05:40.521Z,74.93
2019-05-22T02:06:41.670Z,51.24
2019-05-22T02:07:40.914Z,52.21
2019-05-22T02:08:41.055Z,46.41
2019-05-22T02:09:41.235Z,51.24
2019-05-22T02:10:41.387Z,61.07
2019-05-22T02:11:41.520Z,60.91
2019-05-22T02:12:41.691Z,46.73
2019-05-22T02:13:41.868Z,66.06
2019-05-22T02:14:42.042Z,46.73
2019-05-22T02:15:42.214Z,61.87
2019-05-22T02:16:55.536Z,46.41
2019-05-22T02:17:44.483Z,47.53
2019-05-22T02:18:42.696Z,43.51
2019-05-22T02:19:42.903Z,41.89
2019-05-22T02:20:43.064Z,49.15
2019-05-22T02:21:43.239Z,74.77
2019-05-22T02:22:43.374Z,60.26
2019-05-22T02:23:43.542Z,67.03
2019-05-22T02:24:43.759Z,56.40
2019-05-22T02:25:44.030Z,57.69
2019-05-22T02:26:44.190Z,62.84
2019-05-22T02:27:44.338Z,51.72
2019-05-22T02:28:44.498Z,49.47
2019-05-22T02:29:44.655Z,51.72
2019-05-22T02:30:44.803Z,78.47
2019-05-22T02:31:44.981Z,52.21
2019-05-22T02:32:45.149Z,49.95
2019-05-22T02:33:45.318Z,52.05
2019-05-22T02:34:45.482Z,80.89
2019-05-22T02:35:46.728Z,53.82
2019-05-22T02:36:45.884Z,57.85
2019-05-22T02:37:46.043Z,76.05
2019-05-22T02:38:46.210Z,52.37
2019-05-22T02:39:46.359Z,53.33
2019-05-22T02:40:46.503Z,55.27
2019-05-22T02:41:46.652Z,56.72
2019-05-22T02:42:46.846Z,57.36
2019-05-22T02:43:47.038Z,53.01
2019-05-22T02:44:47.219Z,56.56
2019-05-22T02:45:47.386Z,63.97
2019-05-22T02:46:47.601Z,62.68
2019-05-22T02:47:47.798Z,67.84
2019-05-22T02:48:47.986Z,65.58
2019-05-22T02:49:48.185Z,67.51
2019-05-22T02:50:48.400Z,69.13
2019-05-22T02:51:48.665Z,67.35
2019-05-22T02:52:48.744Z,67.35
2019-05-22T02:53:48.914Z,68.00
2019-05-22T02:54:49.149Z,68.80
2019-05-22T02:55:49.337Z,67.03
2019-05-22T02:56:49.489Z,64.29
2019-05-22T02:57:49.662Z,67.51
2019-05-22T02:58:49.838Z,70.09
2019-05-22T02:59:50.046Z,66.55
2019-05-22T03:00:50.136Z,65.90
2019-05-22T03:01:50.320Z,66.55
2019-05-22T03:02:50.508Z,66.55
2019-05-22T03:03:51.693Z,64.94
2019-05-22T03:04:50.881Z,66.87
2019-05-22T03:05:51.086Z,67.35
2019-05-22T03:06:51.228Z,64.45
2019-05-22T03:07:51.435Z,68.64
2019-05-22T03:08:51.612Z,75.57
2019-05-22T03:09:51.785Z,63.33
2019-05-22T03:10:51.986Z,68.00
2019-05-22T03:11:52.160Z,73.15
2019-05-22T03:12:52.365Z,67.19
2019-05-22T03:13:52.538Z,68.48
2019-05-22T03:14:52.687Z,67.03
2019-05-22T03:15:52.833Z,79.28
2019-05-22T03:16:53.015Z,71.54
2019-05-22T03:17:53.177Z,65.26
2019-05-22T03:19:08.385Z,65.26
2019-05-22T03:19:55.461Z,66.71
2019-05-22T03:20:53.706Z,66.39
2019-05-22T03:21:53.893Z,67.03
2019-05-22T03:22:54.087Z,65.42
2019-05-22T03:23:54.263Z,78.15
2019-05-22T03:24:54.448Z,72.67
2019-05-22T03:25:54.639Z,77.02
2019-05-22T03:26:54.814Z,87.66
2019-05-22T03:27:55.019Z,62.84
2019-05-22T03:28:55.226Z,66.55
2019-05-22T03:29:55.411Z,67.51
2019-05-22T03:30:55.530Z,73.48
2019-05-22T03:31:56.706Z,74.12
2019-05-22T03:32:55.890Z,64.94
2019-05-22T03:33:56.092Z,64.61
2019-05-22T03:34:56.264Z,65.90
2019-05-22T03:35:56.419Z,69.93
2019-05-22T03:36:56.609Z,63.33
2019-05-22T03:37:56.805Z,63.00
2019-05-22T03:38:56.976Z,68.64
2019-05-22T03:39:57.138Z,66.06
2019-05-22T03:40:57.339Z,64.45
2019-05-22T03:41:57.504Z,62.52
2019-05-22T03:42:57.676Z,61.55
2019-05-22T03:43:58.859Z,71.70
2019-05-22T03:44:57.999Z,77.02
2019-05-22T03:45:58.166Z,74.28
2019-05-22T03:46:59.554Z,62.84
2019-05-22T03:47:59.449Z,70.90
2019-05-22T03:48:58.618Z,73.64
2019-05-22T03:49:58.787Z,63.33
2019-05-22T03:50:58.936Z,74.93
2019-05-22T03:51:59.078Z,63.97
2019-05-22T03:52:59.269Z,72.99
2019-05-22T03:53:59.408Z,69.13
2019-05-22T03:54:59.586Z,68.96
2019-05-22T03:55:59.739Z,63.97
2019-05-22T03:56:59.903Z,64.78
2019-05-22T03:58:00.075Z,61.07
2019-05-22T03:59:00.232Z,74.60
2019-05-22T04:00:00.429Z,60.91
2019-05-22T04:01:01.641Z,61.71
2019-05-22T04:02:00.807Z,69.13
2019-05-22T04:03:01.038Z,62.04
2019-05-22T04:04:01.202Z,71.38
2019-05-22T04:05:01.356Z,65.90
2019-05-22T04:06:01.535Z,62.04
2019-05-22T04:07:01.740Z,59.14
2019-05-22T04:08:01.939Z,81.53
2019-05-22T04:09:02.096Z,73.48
2019-05-22T04:10:02.269Z,78.63
2019-05-22T04:11:02.418Z,70.42
2019-05-22T04:12:02.586Z,71.87
2019-05-22T04:13:02.725Z,64.94
2019-05-22T04:14:02.878Z,72.03
2019-05-22T04:15:03.027Z,65.26
2019-05-22T04:16:03.205Z,70.90
2019-05-22T04:17:03.384Z,67.35
2019-05-22T04:18:03.540Z,65.90
2019-05-22T04:19:03.691Z,63.49
2019-05-22T04:20:03.863Z,65.90
2019-05-22T04:21:04.051Z,63.33
2019-05-22T04:22:04.249Z,68.16
2019-05-22T04:23:04.403Z,73.96
2019-05-22T04:24:05.545Z,66.06
2019-05-22T04:25:04.785Z,70.74
2019-05-22T04:26:04.958Z,71.38
2019-05-22T04:27:05.117Z,64.61
2019-05-22T04:28:05.287Z,71.22
2019-05-22T04:29:05.471Z,75.09
2019-05-22T04:30:05.635Z,75.57
2019-05-22T04:31:05.843Z,66.71
2019-05-22T04:32:06.030Z,69.13
2019-05-22T04:33:06.239Z,70.58
2019-05-22T04:34:06.408Z,54.62
2019-05-22T04:35:06.635Z,59.62
2019-05-22T04:36:10.166Z,69.61
2019-05-22T04:37:07.984Z,58.81
2019-05-22T04:38:07.141Z,57.69
2019-05-22T04:39:07.307Z,61.07
2019-05-22T04:40:07.477Z,73.15
2019-05-22T04:41:07.680Z,58.33
2019-05-22T04:42:08.889Z,81.21
2019-05-22T04:43:08.030Z,63.33
2019-05-22T04:44:08.183Z,72.19
2019-05-22T04:45:08.342Z,71.87
2019-05-22T04:46:08.503Z,65.74
2019-05-22T04:47:08.711Z,74.77
2019-05-22T04:48:08.889Z,69.77
2019-05-22T04:49:09.037Z,70.42
2019-05-22T04:50:09.227Z,70.42
2019-05-22T04:51:09.384Z,75.41
2019-05-22T04:52:09.579Z,67.84
2019-05-22T04:53:09.732Z,78.63
2019-05-22T04:54:09.960Z,65.26
2019-05-22T04:55:10.158Z,76.38
2019-05-22T04:56:10.322Z,81.21
2019-05-22T04:57:10.521Z,69.45
2019-05-22T04:58:10.668Z,65.58
2019-05-22T04:59:10.848Z,69.61
2019-05-22T05:00:11.014Z,72.35
2019-05-22T05:01:11.196Z,74.77
2019-05-22T05:02:11.407Z,72.35
2019-05-22T05:03:11.611Z,72.51
2019-05-22T05:04:11.807Z,68.80
2019-05-22T05:05:11.984Z,71.54
2019-05-22T05:06:12.195Z,70.09
2019-05-22T05:07:12.399Z,73.96
2019-05-22T05:08:12.584Z,66.71
2019-05-22T05:09:12.745Z,72.35
2019-05-22T05:10:12.921Z,65.42
2019-05-22T05:11:13.068Z,68.64
2019-05-22T05:12:13.240Z,76.05
2019-05-22T05:13:13.456Z,74.60
2019-05-22T05:14:13.641Z,74.93
2019-05-22T05:15:13.796Z,73.48
2019-05-22T05:16:13.960Z,68.00
2019-05-22T05:17:14.126Z,71.70
2019-05-22T05:18:14.337Z,68.16
2019-05-22T05:19:14.491Z,76.05
2019-05-22T05:20:22.637Z,62.68
2019-05-22T05:21:16.780Z,78.31
2019-05-22T05:22:15.058Z,68.32
2019-05-22T05:23:15.204Z,68.16
2019-05-22T05:24:15.427Z,72.03
2019-05-22T05:25:15.586Z,70.09
2019-05-22T05:26:15.774Z,71.70
2019-05-22T05:27:15.955Z,72.35
2019-05-22T05:28:16.130Z,73.80
2019-05-22T05:29:16.306Z,65.58
2019-05-22T05:30:16.471Z,81.37
2019-05-22T05:31:16.623Z,68.32
2019-05-22T05:32:16.755Z,79.12
2019-05-22T05:33:16.995Z,83.14
2019-05-22T05:34:17.161Z,82.66
2019-05-22T05:35:17.306Z,70.42
2019-05-22T05:36:17.484Z,69.61
2019-05-22T05:37:17.624Z,69.45
2019-05-22T05:38:17.842Z,72.51
2019-05-22T05:39:18.026Z,64.45
2019-05-22T05:40:18.188Z,67.51
2019-05-22T05:41:18.345Z,74.77
2019-05-22T05:42:18.533Z,74.77
2019-05-22T05:43:18.718Z,67.84
2019-05-22T05:44:18.905Z,74.44
2019-05-22T05:45:19.067Z,71.06
2019-05-22T05:46:19.249Z,71.22
2019-05-22T05:47:19.436Z,68.64
2019-05-22T05:48:19.614Z,73.64
2019-05-22T05:49:19.795Z,53.17
2019-05-22T05:50:19.980Z,57.04
2019-05-22T05:51:20.209Z,75.89
2019-05-22T05:52:20.524Z,60.75
2019-05-22T05:53:20.538Z,71.06
2019-05-22T05:54:20.697Z,78.47
2019-05-22T05:55:20.944Z,79.28
2019-05-22T05:56:21.261Z,75.73
2019-05-22T05:57:21.184Z,72.19
2019-05-22T05:58:21.353Z,67.19
2019-05-22T05:59:21.522Z,71.54
2019-05-22T06:00:21.738Z,70.42
2019-05-22T06:01:21.926Z,73.96
2019-05-22T06:02:22.097Z,72.19
2019-05-22T06:03:22.269Z,76.70
2019-05-22T06:04:34.089Z,74.12
2019-05-22T06:05:24.648Z,70.90
2019-05-22T06:06:23.853Z,73.48
2019-05-22T06:07:22.894Z,71.38
2019-05-22T06:08:23.086Z,74.28
2019-05-22T06:09:23.265Z,69.13
2019-05-22T06:10:23.426Z,74.44
2019-05-22T06:11:23.610Z,72.19
2019-05-22T06:12:23.759Z,69.45
2019-05-22T06:13:23.927Z,73.32
2019-05-22T06:14:24.224Z,70.58
2019-05-22T06:15:24.325Z,60.91
2019-05-22T06:16:24.538Z,73.32
2019-05-22T06:17:24.688Z,70.74
2019-05-22T06:18:24.871Z,76.38
2019-05-22T06:19:25.058Z,73.48
2019-05-22T06:20:25.289Z,72.35
2019-05-22T06:21:25.451Z,72.67
2019-05-22T06:22:25.694Z,73.48
2019-05-22T06:23:25.785Z,82.50
2019-05-22T06:24:25.889Z,62.84
2019-05-22T06:25:26.104Z,81.53
2019-05-22T06:26:26.308Z,79.60
2019-05-22T06:27:26.504Z,70.58
2019-05-22T06:28:26.685Z,70.74
2019-05-22T06:29:27.991Z,77.18
2019-05-22T06:30:28.114Z,73.80
2019-05-22T06:31:27.254Z,67.35
2019-05-22T06:32:27.437Z,73.80
2019-05-22T06:33:27.595Z,73.96
2019-05-22T06:34:27.775Z,71.22
2019-05-22T06:35:27.934Z,65.58
2019-05-22T06:36:28.101Z,72.51
2019-05-22T06:37:28.277Z,70.58
2019-05-22T06:38:28.427Z,72.35
2019-05-22T06:39:28.603Z,70.09
2019-05-22T06:40:28.746Z,71.06
2019-05-22T06:41:28.908Z,66.39
2019-05-22T06:42:29.099Z,74.93
2019-05-22T06:43:29.259Z,73.32
2019-05-22T06:44:29.428Z,76.38
2019-05-22T06:45:29.616Z,76.54
2019-05-22T06:46:29.803Z,70.42
2019-05-22T06:47:30.010Z,72.99
2019-05-22T06:48:30.205Z,70.09
2019-05-22T06:49:30.385Z,67.68
2019-05-22T06:50:30.569Z,66.71
2019-05-22T06:51:30.775Z,75.09
2019-05-22T06:52:30.993Z,64.29
2019-05-22T06:53:31.183Z,70.42
2019-05-22T06:54:31.425Z,73.96
2019-05-22T06:55:31.524Z,73.64
2019-05-22T06:56:31.709Z,66.55
2019-05-22T06:57:31.887Z,67.68
2019-05-22T06:58:32.165Z,67.51
2019-05-22T06:59:32.194Z,73.15
2019-05-22T07:00:32.407Z,64.94
2019-05-22T07:01:32.606Z,71.38
2019-05-22T07:02:32.777Z,61.07
2019-05-22T07:03:33.006Z,68.32
2019-05-22T07:04:33.184Z,73.15
2019-05-22T07:05:33.361Z,70.90
2019-05-22T07:06:33.536Z,65.90
2019-05-22T07:07:33.736Z,61.23
2019-05-22T07:08:33.885Z,61.07
2019-05-22T07:09:34.067Z,74.77
2019-05-22T07:10:34.257Z,75.41
2019-05-22T07:11:34.411Z,71.06
2019-05-22T07:12:34.553Z,63.16
2019-05-22T07:13:34.700Z,73.80
2019-05-22T07:14:34.899Z,62.52
2019-05-22T07:15:35.087Z,70.42
2019-05-22T07:16:35.239Z,66.87
2019-05-22T07:17:35.435Z,63.16
2019-05-22T07:18:35.648Z,61.39
2019-05-22T07:19:35.847Z,69.29
2019-05-22T07:20:36.062Z,65.58
2019-05-22T07:21:36.262Z,72.99
2019-05-22T07:22:36.435Z,61.55
2019-05-22T07:23:36.669Z,61.39
2019-05-22T07:24:37.914Z,62.84
2019-05-22T07:25:37.083Z,63.33
2019-05-22T07:26:37.253Z,60.42
2019-05-22T07:27:37.423Z,63.33
2019-05-22T07:28:37.589Z,72.35
2019-05-22T07:29:37.758Z,68.16
2019-05-22T07:30:37.947Z,74.28
2019-05-22T07:31:38.128Z,73.48
2019-05-22T07:32:38.343Z,62.84
2019-05-22T07:33:38.522Z,68.16
2019-05-22T07:34:38.681Z,70.25
2019-05-22T07:35:56.363Z,56.88
2019-05-22T07:36:41.017Z,70.42
2019-05-22T07:37:39.158Z,53.50
2019-05-22T07:38:39.387Z,75.57
2019-05-22T07:39:39.562Z,63.97
2019-05-22T07:40:39.730Z,74.77
2019-05-22T07:41:39.858Z,74.44
2019-05-22T07:42:40.043Z,76.05
2019-05-22T07:43:41.707Z,74.12
2019-05-22T07:44:41.489Z,70.09
2019-05-22T07:45:40.831Z,77.67
2019-05-22T07:46:40.798Z,70.74
2019-05-22T07:47:41.041Z,57.52
2019-05-22T07:48:41.138Z,69.61
2019-05-22T07:49:41.305Z,73.15
2019-05-22T07:50:41.473Z,74.93
2019-05-22T07:51:53.166Z,72.19
2019-05-22T07:52:43.917Z,73.48
2019-05-22T07:53:42.052Z,85.88
2019-05-22T07:54:42.210Z,88.46
2019-05-22T07:55:42.399Z,88.46
2019-05-22T07:56:42.579Z,86.53
2019-05-22T07:57:42.761Z,91.36
2019-05-22T07:58:43.001Z,79.28
2019-05-22T07:59:43.095Z,81.53
2019-05-22T08:00:43.271Z,60.75
2019-05-22T08:01:43.448Z,69.45
2019-05-22T08:02:43.616Z,72.99
2019-05-22T08:03:43.825Z,55.91
2019-05-22T08:04:44.042Z,69.45
2019-05-22T08:05:44.240Z,66.55
2019-05-22T08:06:44.436Z,70.74
2019-05-22T08:07:44.667Z,73.64
2019-05-22T08:08:44.871Z,67.35
2019-05-22T08:09:45.076Z,73.96
2019-05-22T08:10:45.205Z,71.54
2019-05-22T08:11:45.388Z,76.38
2019-05-22T08:12:45.576Z,68.64
2019-05-22T08:13:45.779Z,74.44
2019-05-22T08:14:45.959Z,72.99
2019-05-22T08:15:48.102Z,72.99
2019-05-22T08:16:47.394Z,76.70
2019-05-22T08:17:46.540Z,68.00
2019-05-22T08:18:46.765Z,65.42
2019-05-22T08:19:46.928Z,70.09
2019-05-22T08:20:47.101Z,69.93
2019-05-22T08:21:47.270Z,62.20
2019-05-22T08:22:47.424Z,73.80
2019-05-22T08:23:48.593Z,64.61
2019-05-22T08:24:47.733Z,63.16
2019-05-22T08:25:47.900Z,73.48
2019-05-22T08:26:54.426Z,61.71
2019-05-22T08:27:50.238Z,66.06
2019-05-22T08:28:48.355Z,69.61
2019-05-22T08:29:48.551Z,72.67
2019-05-22T08:30:48.725Z,78.47
2019-05-22T08:31:48.886Z,64.61
2019-05-22T08:32:49.055Z,70.42
2019-05-22T08:33:50.237Z,62.68
2019-05-22T08:34:49.409Z,69.93
2019-05-22T08:35:49.574Z,66.06
2019-05-22T08:36:49.750Z,65.58
2019-05-22T08:37:49.914Z,56.56
2019-05-22T08:38:50.082Z,66.71
2019-05-22T08:39:50.305Z,67.84
2019-05-22T08:40:50.512Z,72.51
2019-05-22T08:41:50.723Z,76.38
2019-05-22T08:42:50.889Z,61.39
2019-05-22T08:44:13.773Z,69.29
2019-05-22T08:44:53.239Z,73.64
2019-05-22T08:45:51.408Z,65.74
2019-05-22T08:46:51.718Z,63.49
2019-05-22T08:47:51.885Z,75.89
2019-05-22T08:48:52.078Z,67.19
2019-05-22T08:49:52.295Z,71.22
2019-05-22T08:50:52.494Z,63.33
2019-05-22T08:51:52.662Z,72.67
2019-05-22T08:52:52.886Z,69.29
2019-05-22T08:53:53.081Z,67.03
2019-05-22T08:54:53.291Z,69.45
2019-05-22T08:55:53.451Z,71.38
2019-05-22T08:56:53.665Z,61.55
2019-05-22T08:57:53.857Z,65.10
2019-05-22T08:58:54.029Z,67.35
2019-05-22T08:59:54.207Z,71.70
2019-05-22T09:00:54.368Z,67.68
2019-05-22T09:01:54.577Z,72.83
2019-05-22T09:02:54.764Z,72.35
2019-05-22T09:03:54.960Z,56.88
2019-05-22T09:04:55.152Z,59.14
2019-05-22T09:05:55.322Z,71.54
2019-05-22T09:06:55.501Z,70.58
2019-05-22T09:07:55.730Z,57.85
2019-05-22T09:08:55.955Z,67.84
2019-05-22T09:09:56.142Z,69.61
2019-05-22T09:10:56.407Z,72.99
2019-05-22T09:11:57.514Z,68.64
2019-05-22T09:12:57.708Z,68.00
2019-05-22T09:13:56.914Z,67.19
2019-05-22T09:14:57.124Z,70.90
2019-05-22T09:16:01.500Z,68.48
2019-05-22T09:16:57.579Z,72.67
2019-05-22T09:17:57.773Z,71.54
2019-05-22T09:18:57.985Z,67.84
2019-05-22T09:19:58.181Z,66.06
2019-05-22T09:20:58.305Z,68.96
2019-05-22T09:21:58.489Z,70.42
2019-05-22T09:22:58.712Z,71.54
2019-05-22T09:23:58.797Z,70.58
2019-05-22T09:24:58.990Z,63.97
2019-05-22T09:25:59.180Z,77.34
2019-05-22T09:27:02.777Z,70.25
2019-05-22T09:28:00.579Z,74.44
2019-05-22T09:28:59.747Z,73.96
2019-05-22T09:29:59.934Z,65.74
2019-05-22T09:31:00.129Z,65.90
2019-05-22T09:32:00.294Z,63.65
2019-05-22T09:33:00.506Z,69.93
2019-05-22T09:34:00.785Z,69.13
2019-05-22T09:35:00.851Z,70.58
2019-05-22T09:36:01.041Z,70.25
2019-05-22T09:37:01.226Z,63.97
2019-05-22T09:38:01.398Z,73.48
2019-05-22T09:39:01.655Z,66.06
2019-05-22T09:40:01.736Z,66.55
2019-05-22T09:41:01.942Z,70.74
2019-05-22T09:42:02.163Z,77.99
2019-05-22T09:43:02.344Z,66.39
2019-05-22T09:44:02.503Z,68.96
2019-05-22T09:45:02.624Z,71.38
2019-05-22T09:46:02.820Z,70.74
2019-05-22T09:47:03.045Z,67.51
2019-05-22T09:48:03.231Z,71.87
2019-05-22T09:49:03.446Z,69.13
2019-05-22T09:50:03.623Z,74.77
2019-05-22T09:51:03.787Z,71.54
2019-05-22T09:52:03.985Z,70.90
2019-05-22T09:53:04.167Z,68.96
2019-05-22T09:54:04.350Z,64.61
2019-05-22T09:55:04.544Z,72.19
2019-05-22T09:56:04.796Z,68.64
2019-05-22T09:57:04.916Z,69.45
2019-05-22T09:58:05.098Z,71.54
2019-05-22T09:59:05.268Z,70.90
2019-05-22T10:00:05.428Z,71.06
2019-05-22T10:01:05.575Z,83.14
2019-05-22T10:02:05.791Z,84.11
2019-05-22T10:03:05.945Z,83.63
2019-05-22T10:04:06.131Z,83.79
2019-05-22T10:05:06.313Z,84.27
2019-05-22T10:06:06.596Z,82.18
2019-05-22T10:07:06.695Z,72.51
2019-05-22T10:08:06.872Z,67.35
2019-05-22T10:09:07.075Z,69.77
2019-05-22T10:10:07.309Z,67.19
2019-05-22T10:11:07.522Z,72.35
2019-05-22T10:12:07.723Z,64.61
2019-05-22T10:13:07.915Z,67.19
2019-05-22T10:14:08.109Z,58.49
2019-05-22T10:15:08.356Z,52.05
2019-05-22T10:16:08.543Z,50.92
2019-05-22T10:17:08.725Z,71.70
2019-05-22T10:18:08.913Z,71.38
2019-05-22T10:19:09.101Z,69.13
2019-05-22T10:20:09.316Z,65.26
2019-05-22T10:21:09.485Z,69.61
2019-05-22T10:22:09.658Z,72.83
2019-05-22T10:23:15.629Z,58.49
2019-05-22T10:24:12.037Z,68.80
2019-05-22T10:25:15.432Z,75.25
2019-05-22T10:26:12.273Z,70.42
2019-05-22T10:27:10.391Z,57.20
2019-05-22T10:28:10.563Z,55.27
2019-05-22T10:29:10.767Z,69.13
2019-05-22T10:30:10.959Z,65.58
2019-05-22T10:31:13.506Z,67.84
2019-05-22T10:32:11.331Z,67.68
2019-05-22T10:33:11.501Z,67.68
2019-05-22T10:34:11.675Z,74.44
2019-05-22T10:35:11.829Z,68.48
2019-05-22T10:36:11.989Z,70.09
2019-05-22T10:37:12.187Z,77.50
2019-05-22T10:38:12.453Z,64.94
2019-05-22T10:39:12.566Z,76.38
2019-05-22T10:40:12.766Z,70.25
2019-05-22T10:41:12.959Z,71.22
2019-05-22T10:42:13.159Z,78.47
2019-05-22T10:43:13.331Z,71.06
2019-05-22T10:44:13.552Z,80.89
2019-05-22T10:45:13.720Z,69.13
2019-05-22T10:46:13.954Z,69.93
2019-05-22T10:47:14.047Z,67.19
2019-05-22T10:48:14.251Z,68.16
2019-05-22T10:49:14.434Z,76.38
2019-05-22T10:50:14.638Z,64.45
2019-05-22T10:51:14.866Z,68.96
2019-05-22T10:52:15.037Z,70.58
2019-05-22T10:53:30.652Z,66.39
2019-05-22T10:54:16.412Z,62.84
2019-05-22T10:55:15.564Z,70.74
2019-05-22T10:56:15.732Z,64.78
2019-05-22T10:57:15.911Z,69.61
2019-05-22T10:58:16.082Z,69.93
2019-05-22T10:59:16.283Z,72.35
2019-05-22T11:00:16.457Z,70.74
2019-05-22T11:01:16.616Z,68.96
2019-05-22T11:02:16.816Z,76.38
2019-05-22T11:03:16.952Z,69.93
2019-05-22T11:04:19.520Z,69.61
2019-05-22T11:05:18.256Z,70.58
2019-05-22T11:06:17.394Z,67.84
2019-05-22T11:07:17.589Z,70.74
2019-05-22T11:08:17.748Z,55.59
2019-05-22T11:09:17.919Z,56.88
2019-05-22T11:10:18.082Z,64.61
2019-05-22T11:11:18.251Z,65.26
2019-05-22T11:12:18.408Z,72.35
2019-05-22T11:13:18.569Z,61.39
2019-05-22T11:14:18.717Z,69.77
2019-05-22T11:15:18.868Z,67.51
2019-05-22T11:16:19.088Z,70.25
2019-05-22T11:17:19.169Z,68.64
2019-05-22T11:18:19.346Z,66.39
2019-05-22T11:19:19.514Z,66.55
2019-05-22T11:20:19.670Z,72.35
2019-05-22T11:21:19.868Z,65.74
2019-05-22T11:22:20.073Z,71.70
2019-05-22T11:23:20.246Z,58.65
2019-05-22T11:24:20.368Z,59.94
2019-05-22T11:25:20.528Z,65.58
2019-05-22T11:26:20.767Z,68.64
2019-05-22T11:27:21.001Z,68.48
2019-05-22T11:28:21.076Z,70.58
2019-05-22T11:29:21.312Z,71.54
2019-05-22T11:30:21.375Z,72.03
2019-05-22T11:31:21.554Z,67.68
2019-05-22T11:32:21.762Z,69.61
2019-05-22T11:33:21.942Z,65.42
2019-05-22T11:34:22.139Z,67.35
2019-05-22T11:35:22.295Z,63.16
2019-05-22T11:36:22.499Z,71.22
2019-05-22T11:37:22.689Z,78.96
2019-05-22T11:38:22.881Z,64.45
2019-05-22T11:39:38.061Z,66.71
2019-05-22T11:40:25.256Z,69.45
2019-05-22T11:41:23.393Z,71.38
2019-05-22T11:42:23.589Z,71.70
2019-05-22T11:43:23.768Z,67.68
2019-05-22T11:44:23.980Z,69.77
2019-05-22T11:45:24.162Z,66.39
2019-05-22T11:46:24.341Z,65.10
2019-05-22T11:47:24.519Z,67.03
2019-05-22T11:48:24.708Z,77.02
2019-05-22T11:49:24.903Z,71.70
2019-05-22T11:50:25.083Z,69.13
2019-05-22T11:51:25.255Z,55.75
2019-05-22T11:52:25.478Z,56.72
2019-05-22T11:53:25.684Z,48.02
2019-05-22T11:54:25.885Z,51.24
2019-05-22T11:55:42.805Z,68.32
2019-05-22T11:56:28.295Z,68.96
2019-05-22T11:57:26.432Z,67.35
2019-05-22T11:58:26.633Z,67.35
2019-05-22T11:59:26.824Z,64.61
2019-05-22T12:00:27.014Z,72.35
2019-05-22T12:01:27.226Z,67.68
2019-05-22T12:02:27.421Z,71.54
2019-05-22T12:03:27.619Z,76.05
2019-05-22T12:04:27.828Z,70.74
2019-05-22T12:05:27.994Z,69.93
2019-05-22T12:06:28.227Z,68.16
2019-05-22T12:07:28.330Z,66.71
2019-05-22T12:08:28.549Z,74.60
2019-05-22T12:09:28.756Z,67.35
2019-05-22T12:10:28.987Z,64.61
2019-05-22T12:11:29.305Z,66.71
2019-05-22T12:12:29.440Z,69.77
2019-05-22T12:13:29.628Z,66.23
2019-05-22T12:14:29.710Z,70.25
2019-05-22T12:15:29.950Z,68.80
2019-05-22T12:16:30.071Z,70.58
2019-05-22T12:17:38.063Z,70.90
2019-05-22T12:18:32.459Z,68.96
2019-05-22T12:19:30.618Z,66.87
2019-05-22T12:20:30.865Z,70.42
2019-05-22T12:21:31.076Z,66.87
2019-05-22T12:22:31.327Z,66.87
2019-05-22T12:23:31.404Z,72.99
2019-05-22T12:24:36.802Z,72.51
2019-05-22T12:25:33.802Z,68.48
2019-05-22T12:26:31.965Z,64.45
2019-05-22T12:27:32.134Z,70.90
2019-05-22T12:28:32.370Z,68.80
2019-05-22T12:29:32.588Z,63.00
2019-05-22T12:30:32.844Z,69.45
2019-05-22T12:31:32.917Z,72.19
2019-05-22T12:32:33.143Z,64.45
2019-05-22T12:33:33.252Z,67.51
2019-05-22T12:34:33.482Z,54.79
2019-05-22T12:35:33.674Z,69.77
2019-05-22T12:36:33.877Z,71.06
2019-05-22T12:37:34.140Z,67.19
2019-05-22T12:38:34.241Z,69.45
2019-05-22T12:39:34.490Z,66.55
2019-05-22T12:40:34.646Z,56.24
2019-05-22T12:41:34.821Z,74.93
2019-05-22T12:42:35.007Z,63.33
2019-05-22T12:43:35.181Z,68.80
2019-05-22T12:44:35.391Z,73.80
2019-05-22T12:45:35.583Z,66.39
2019-05-22T12:46:35.778Z,70.74
2019-05-22T12:47:35.959Z,62.84
2019-05-22T12:48:36.135Z,73.96
2019-05-22T12:49:36.321Z,73.32
2019-05-22T12:50:36.523Z,71.38
2019-05-22T12:51:36.712Z,68.64
2019-05-22T12:52:36.892Z,69.29
2019-05-22T12:53:37.051Z,74.44
2019-05-22T12:54:47.329Z,70.90